createdAt,value
2022-10-23T00:00:29.094Z,15.00
2022-10-23T00:01:00.618Z,13.45
2022-10-23T00:01:33.742Z,13.75
2022-10-23T00:02:05.218Z,11.65
2022-10-23T00:02:36.660Z,13.27
2022-10-23T00:03:08.188Z,15.65
2022-10-23T00:03:39.531Z,12.63
2022-10-23T00:04:15.373Z,15.90
2022-10-23T00:04:50.036Z,15.27
2022-10-23T00:05:21.523Z,14.63
2022-10-23T00:05:52.968Z,18.23
2022-10-23T00:06:24.606Z,15.80
2022-10-23T00:06:55.990Z,17.70
2022-10-23T00:07:27.414Z,18.55
2022-10-23T00:07:59.588Z,13.65
2022-10-23T00:08:31.068Z,12.32
2022-10-23T00:09:04.607Z,14.23
2022-10-23T00:09:36.007Z,13.70
2022-10-23T00:10:07.597Z,13.27
2022-10-23T00:10:40.917Z,13.20
2022-10-23T00:11:14.671Z,13.88
2022-10-23T00:11:46.926Z,12.50
2022-10-23T00:12:18.765Z,12.38
2022-10-23T00:12:50.574Z,13.55
2022-10-23T00:13:21.945Z,13.82
2022-10-23T00:13:54.712Z,13.45
2022-10-23T00:14:26.099Z,15.90
2022-10-23T00:14:57.539Z,15.20
2022-10-23T00:15:29.019Z,14.98
2022-10-23T00:16:00.402Z,13.65
2022-10-23T00:16:31.850Z,13.05
2022-10-23T00:17:03.646Z,12.48
2022-10-23T00:17:35.029Z,11.95
2022-10-23T00:18:06.414Z,12.73
2022-10-23T00:18:38.267Z,14.73
2022-10-23T00:19:10.263Z,12.73
2022-10-23T00:19:41.645Z,12.43
2022-10-23T00:20:13.548Z,12.50
2022-10-23T00:20:44.933Z,11.68
2022-10-23T00:21:17.187Z,13.75
2022-10-23T00:21:48.581Z,13.52
2022-10-23T00:22:19.960Z,14.23
2022-10-23T00:22:51.347Z,13.35
2022-10-23T00:23:23.048Z,15.48
2022-10-23T00:23:54.424Z,13.93
2022-10-23T00:24:25.826Z,12.45
2022-10-23T00:24:57.201Z,13.93
2022-10-23T00:25:28.533Z,12.82
2022-10-23T00:25:59.918Z,13.93
2022-10-23T00:26:31.353Z,14.75
2022-10-23T00:27:02.740Z,13.15
2022-10-23T00:27:34.232Z,12.50
2022-10-23T00:28:05.579Z,14.80
2022-10-23T00:28:37.359Z,11.65
2022-10-23T00:29:09.523Z,13.75
2022-10-23T00:29:40.914Z,14.07
2022-10-23T00:30:12.755Z,14.82
2022-10-23T00:30:44.142Z,15.35
2022-10-23T00:31:15.988Z,11.95
2022-10-23T00:31:47.372Z,14.13
2022-10-23T00:32:18.780Z,14.02
2022-10-23T00:32:50.194Z,15.02
2022-10-23T00:33:21.578Z,12.55
2022-10-23T00:33:53.168Z,11.50
2022-10-23T00:34:24.552Z,14.05
2022-10-23T00:34:56.001Z,13.25
2022-10-23T00:35:27.379Z,13.07
2022-10-23T00:35:58.764Z,11.30
2022-10-23T00:36:30.151Z,14.65
2022-10-23T00:37:01.538Z,14.10
2022-10-23T00:37:32.920Z,14.45
2022-10-23T00:38:04.255Z,15.05
2022-10-23T00:38:36.254Z,15.90
2022-10-23T00:39:07.652Z,14.63
2022-10-23T00:39:39.034Z,16.30
2022-10-23T00:40:10.669Z,14.48
2022-10-23T00:40:42.097Z,17.33
2022-10-23T00:41:15.708Z,13.73
2022-10-23T00:41:47.082Z,13.73
2022-10-23T00:42:19.556Z,12.57
2022-10-23T00:42:50.927Z,13.32
2022-10-23T00:43:23.550Z,16.05
2022-10-23T00:43:56.522Z,15.80
2022-10-23T00:44:30.988Z,15.25
2022-10-23T00:45:14.961Z,14.90
2022-10-23T00:45:46.310Z,12.88
2022-10-23T00:46:17.735Z,12.23
2022-10-23T00:46:49.223Z,12.30
2022-10-23T00:47:20.863Z,13.52
2022-10-23T00:47:52.808Z,15.05
2022-10-23T00:48:25.218Z,12.48
2022-10-23T00:48:57.118Z,15.30
2022-10-23T00:49:28.579Z,13.93
2022-10-23T00:50:00.008Z,16.45
2022-10-23T00:50:32.566Z,12.60
2022-10-23T00:51:04.063Z,14.00
2022-10-23T00:51:40.096Z,11.88
2022-10-23T00:52:12.453Z,12.40
2022-10-23T00:52:48.607Z,11.73
2022-10-23T00:53:20.957Z,12.68
2022-10-23T00:54:01.391Z,11.63
2022-10-23T00:54:44.265Z,14.32
2022-10-23T00:55:16.315Z,13.17
2022-10-23T00:55:48.976Z,12.20
2022-10-23T00:56:20.373Z,14.27
2022-10-23T00:56:53.550Z,13.07
2022-10-23T00:57:25.101Z,13.07
2022-10-23T00:57:56.723Z,13.32
2022-10-23T00:58:28.110Z,12.43
2022-10-23T00:58:59.495Z,14.52
2022-10-23T00:59:31.657Z,12.00
2022-10-23T01:00:04.012Z,12.48
2022-10-23T01:00:43.641Z,13.38
2022-10-23T01:01:19.179Z,15.43
2022-10-23T01:01:50.805Z,15.05
2022-10-23T01:02:22.318Z,15.10
2022-10-23T01:02:54.670Z,12.90
2022-10-23T01:03:27.536Z,13.00
2022-10-23T01:03:59.067Z,13.93
2022-10-23T01:04:32.009Z,13.27
2022-10-23T01:05:03.434Z,13.50
2022-10-23T01:05:57.907Z,13.80
2022-10-23T01:06:34.923Z,14.43
2022-10-23T01:07:17.995Z,12.35
2022-10-23T01:08:18.558Z,11.90
2022-10-23T01:08:55.624Z,12.23
2022-10-23T01:09:29.842Z,12.85
2022-10-23T01:10:09.416Z,12.15
2022-10-23T01:10:45.452Z,12.68
2022-10-23T01:11:19.658Z,14.63
2022-10-23T01:12:09.729Z,12.38
2022-10-23T01:12:53.165Z,11.98
2022-10-23T01:13:34.822Z,13.82
2022-10-23T01:14:11.034Z,13.52
2022-10-23T01:14:45.539Z,14.75
2022-10-23T01:15:20.372Z,14.05
2022-10-23T01:16:27.017Z,13.23
2022-10-23T01:17:04.378Z,15.27
2022-10-23T01:17:44.854Z,14.57
2022-10-23T01:18:19.352Z,15.35
2022-10-23T01:19:19.929Z,13.10
2022-10-23T01:20:00.270Z,12.68
2022-10-23T01:20:42.875Z,13.30
2022-10-23T01:21:34.837Z,13.48
2022-10-23T01:22:18.713Z,15.10
2022-10-23T01:23:05.100Z,14.45
2022-10-23T01:23:52.208Z,15.23
2022-10-23T01:24:29.328Z,13.63
2022-10-23T01:25:01.956Z,13.50
2022-10-23T01:25:51.553Z,15.43
2022-10-23T01:26:25.978Z,13.57
2022-10-23T01:27:02.212Z,11.93
2022-10-23T01:27:36.572Z,17.05
2022-10-23T01:28:14.866Z,14.77
2022-10-23T01:28:55.776Z,12.65
2022-10-23T01:29:36.329Z,14.02
2022-10-23T01:30:07.769Z,13.48
2022-10-23T01:30:42.843Z,13.55
2022-10-23T01:31:20.634Z,12.05
2022-10-23T01:32:00.110Z,15.27
2022-10-23T01:32:44.266Z,13.52
2022-10-23T01:33:25.911Z,13.93
2022-10-23T01:34:04.104Z,14.80
2022-10-23T01:34:38.973Z,14.57
2022-10-23T01:35:16.658Z,12.68
2022-10-23T01:35:50.502Z,13.30
2022-10-23T01:36:23.840Z,13.15
2022-10-23T01:36:56.507Z,12.85
2022-10-23T01:37:32.913Z,13.93
2022-10-23T01:38:04.289Z,13.38
2022-10-23T01:38:49.543Z,12.52
2022-10-23T01:39:23.504Z,12.13
2022-10-23T01:39:55.550Z,12.67
2022-10-23T01:40:33.031Z,15.38
2022-10-23T01:41:09.937Z,12.20
2022-10-23T01:41:46.402Z,11.23
2022-10-23T01:42:21.675Z,14.27
2022-10-23T01:42:54.904Z,13.48
2022-10-23T01:43:29.773Z,12.13
2022-10-23T01:44:11.252Z,14.85
2022-10-23T01:44:44.789Z,14.85
2022-10-23T01:45:21.763Z,13.55
2022-10-23T01:45:54.991Z,12.68
2022-10-23T01:46:27.336Z,13.82
2022-10-23T01:46:58.745Z,13.93
2022-10-23T01:47:32.883Z,14.07
2022-10-23T01:48:05.436Z,13.67
2022-10-23T01:48:37.146Z,14.18
2022-10-23T01:49:10.720Z,14.13
2022-10-23T01:49:42.575Z,13.15
2022-10-23T01:50:15.178Z,14.13
2022-10-23T01:50:47.038Z,15.50
2022-10-23T01:51:19.340Z,13.10
2022-10-23T01:51:56.259Z,13.70
2022-10-23T01:52:27.794Z,13.48
2022-10-23T01:52:59.180Z,11.60
2022-10-23T01:53:31.600Z,12.93
2022-10-23T01:54:05.789Z,13.18
2022-10-23T01:54:39.437Z,13.10
2022-10-23T01:55:11.847Z,12.45
2022-10-23T01:55:44.145Z,13.35
2022-10-23T01:56:17.685Z,13.13
2022-10-23T01:56:50.196Z,13.43
2022-10-23T01:57:22.767Z,14.23
2022-10-23T01:57:54.756Z,12.15
2022-10-23T01:58:26.462Z,12.75
2022-10-23T01:58:58.615Z,15.48
2022-10-23T01:59:32.572Z,15.57
2022-10-23T02:00:07.482Z,13.27
2022-10-23T02:00:39.779Z,13.90
2022-10-23T02:01:12.320Z,14.30
2022-10-23T02:01:46.316Z,15.32
2022-10-23T02:02:18.811Z,14.70
2022-10-23T02:02:51.363Z,12.53
2022-10-23T02:03:23.364Z,13.45
2022-10-23T02:03:56.021Z,15.73
2022-10-23T02:04:30.644Z,12.75
2022-10-23T02:05:17.138Z,13.70
2022-10-23T02:05:48.520Z,15.33
2022-10-23T02:06:19.960Z,12.65
2022-10-23T02:06:51.399Z,15.75
2022-10-23T02:07:23.040Z,14.73
2022-10-23T02:07:54.407Z,12.75
2022-10-23T02:08:25.808Z,12.90
2022-10-23T02:08:57.311Z,14.55
2022-10-23T02:09:28.734Z,11.52
2022-10-23T02:10:00.161Z,12.85
2022-10-23T02:10:48.882Z,14.13
2022-10-23T02:11:21.435Z,15.75
2022-10-23T02:11:54.858Z,13.18
2022-10-23T02:13:08.283Z,14.60
2022-10-23T02:13:44.791Z,14.52
2022-10-23T02:14:18.941Z,13.07
2022-10-23T02:14:55.298Z,15.10
2022-10-23T02:15:26.642Z,13.65
2022-10-23T02:16:07.542Z,15.07
2022-10-23T02:16:44.814Z,14.50
2022-10-23T02:17:31.507Z,14.87
2022-10-23T02:18:02.844Z,12.18
2022-10-23T02:18:52.150Z,13.70
2022-10-23T02:19:29.382Z,14.60
2022-10-23T02:20:07.313Z,14.70
2022-10-23T02:20:41.822Z,15.90
2022-10-23T02:21:15.475Z,13.50
2022-10-23T02:21:49.971Z,16.50
2022-10-23T02:22:30.055Z,16.80
2022-10-23T02:23:01.391Z,13.98
2022-10-23T02:23:34.839Z,14.87
2022-10-23T02:24:09.390Z,16.30
2022-10-23T02:24:46.662Z,16.13
2022-10-23T02:25:22.756Z,16.02
2022-10-23T02:25:59.627Z,15.07
2022-10-23T02:26:36.293Z,14.70
2022-10-23T02:27:12.944Z,14.25
2022-10-23T02:27:47.059Z,17.50
2022-10-23T02:28:22.535Z,15.27
2022-10-23T02:28:55.852Z,18.15
2022-10-23T02:29:53.305Z,17.27
2022-10-23T02:30:24.793Z,15.05
2022-10-23T02:30:59.363Z,15.55
2022-10-23T02:31:31.155Z,14.68
2022-10-23T02:32:02.645Z,15.10
2022-10-23T02:32:34.944Z,17.15
2022-10-23T02:33:07.568Z,12.48
2022-10-23T02:33:39.359Z,13.07
2022-10-23T02:34:10.891Z,14.60
2022-10-23T02:34:42.283Z,13.77
2022-10-23T02:35:14.638Z,14.35
2022-10-23T02:35:47.205Z,12.35
2022-10-23T02:36:19.050Z,13.40
2022-10-23T02:36:50.915Z,12.95
2022-10-23T02:38:00.078Z,16.67
2022-10-23T02:38:39.107Z,17.63
2022-10-23T02:39:10.531Z,14.68
2022-10-23T02:39:42.112Z,14.70
2022-10-23T02:40:13.554Z,13.53
2022-10-23T02:40:46.495Z,12.52
2022-10-23T02:41:26.965Z,14.15
2022-10-23T02:42:09.373Z,13.48
2022-10-23T02:42:48.484Z,15.57
2022-10-23T02:43:30.474Z,15.35
2022-10-23T02:44:20.647Z,13.30
2022-10-23T02:45:12.258Z,16.35
2022-10-23T02:45:43.593Z,13.27
2022-10-23T02:46:20.354Z,14.47
2022-10-23T02:47:10.389Z,14.20
2022-10-23T02:48:00.672Z,13.45
2022-10-23T02:48:36.066Z,12.65
2022-10-23T02:49:07.472Z,12.93
2022-10-23T02:49:50.899Z,14.20
2022-10-23T02:50:40.969Z,14.38
2022-10-23T02:51:21.724Z,13.18
2022-10-23T02:52:01.657Z,12.80
2022-10-23T02:52:33.048Z,13.02
2022-10-23T02:53:16.777Z,13.93
2022-10-23T02:53:54.414Z,13.10
2022-10-23T02:54:31.828Z,13.70
2022-10-23T02:55:22.122Z,13.48
2022-10-23T02:55:56.471Z,14.00
2022-10-23T02:56:41.212Z,12.40
2022-10-23T02:57:15.685Z,14.65
2022-10-23T02:58:06.111Z,14.82
2022-10-23T02:58:43.544Z,14.63
2022-10-23T02:59:18.004Z,14.32
2022-10-23T03:00:01.823Z,13.77
2022-10-23T03:00:35.214Z,12.50
2022-10-23T03:01:09.452Z,12.05
2022-10-23T03:02:03.554Z,16.00
2022-10-23T03:02:35.067Z,14.45
2022-10-23T03:03:10.238Z,13.50
2022-10-23T03:03:44.699Z,13.38
2022-10-23T03:04:17.268Z,13.80
2022-10-23T03:04:49.065Z,11.90
2022-10-23T03:05:21.932Z,14.57
2022-10-23T03:05:53.317Z,12.43
2022-10-23T03:06:25.160Z,14.50
2022-10-23T03:06:56.546Z,15.00
2022-10-23T03:07:28.035Z,13.52
2022-10-23T03:07:59.391Z,14.75
2022-10-23T03:08:30.810Z,12.10
2022-10-23T03:09:04.192Z,15.10
2022-10-23T03:09:36.804Z,13.80
2022-10-23T03:10:09.264Z,12.27
2022-10-23T03:10:40.991Z,12.18
2022-10-23T03:11:12.348Z,13.32
2022-10-23T03:11:43.786Z,13.75
2022-10-23T03:12:15.175Z,12.60
2022-10-23T03:12:46.563Z,13.55
2022-10-23T03:13:17.935Z,13.27
2022-10-23T03:13:49.330Z,13.73
2022-10-23T03:14:20.956Z,13.57
2022-10-23T03:14:52.407Z,13.85
2022-10-23T03:15:23.741Z,13.85
2022-10-23T03:15:55.129Z,11.85
2022-10-23T03:16:26.566Z,13.73
2022-10-23T03:16:57.951Z,12.82
2022-10-23T03:17:29.335Z,12.05
2022-10-23T03:18:00.728Z,14.90
2022-10-23T03:18:32.165Z,13.43
2022-10-23T03:19:03.588Z,13.13
2022-10-23T03:19:35.036Z,12.82
2022-10-23T03:20:06.933Z,13.45
2022-10-23T03:20:38.320Z,13.05
2022-10-23T03:21:10.174Z,12.88
2022-10-23T03:21:41.504Z,12.98
2022-10-23T03:22:12.837Z,13.75
2022-10-23T03:22:44.580Z,12.48
2022-10-23T03:23:16.277Z,13.52
2022-10-23T03:23:47.664Z,14.45
2022-10-23T03:24:19.049Z,13.32
2022-10-23T03:24:50.631Z,12.90
2022-10-23T03:25:22.096Z,13.20
2022-10-23T03:25:53.922Z,11.82
2022-10-23T03:26:25.365Z,12.82
2022-10-23T03:26:56.848Z,12.15
2022-10-23T03:28:00.543Z,12.85
2022-10-23T03:28:31.926Z,13.10
2022-10-23T03:29:03.330Z,13.48
2022-10-23T03:29:34.713Z,12.65
2022-10-23T03:30:06.557Z,13.10
2022-10-23T03:30:37.941Z,13.25
2022-10-23T03:31:09.342Z,13.05
2022-10-23T03:31:40.757Z,13.10
2022-10-23T03:32:12.145Z,13.80
2022-10-23T03:32:43.739Z,13.02
2022-10-23T03:33:15.414Z,12.30
2022-10-23T03:33:46.818Z,13.90
2022-10-23T03:34:18.146Z,13.20
2022-10-23T03:34:49.534Z,11.87
2022-10-23T03:35:20.972Z,13.40
2022-10-23T03:35:52.364Z,12.18
2022-10-23T03:36:23.747Z,13.57
2022-10-23T03:36:55.138Z,13.38
2022-10-23T03:37:26.529Z,13.27
2022-10-23T03:37:57.982Z,12.52
2022-10-23T03:38:29.451Z,14.57
2022-10-23T03:39:00.796Z,13.10
2022-10-23T03:39:32.160Z,12.50
2022-10-23T03:40:04.509Z,13.90
2022-10-23T03:40:35.914Z,13.02
2022-10-23T03:41:07.294Z,14.05
2022-10-23T03:41:38.681Z,12.73
2022-10-23T03:42:10.035Z,13.40
2022-10-23T03:42:41.456Z,12.75
2022-10-23T03:43:13.095Z,13.02
2022-10-23T03:43:44.476Z,11.27
2022-10-23T03:44:15.889Z,12.27
2022-10-23T03:44:47.352Z,13.85
2022-10-23T03:45:18.763Z,13.02
2022-10-23T03:45:50.192Z,13.23
2022-10-23T03:46:21.603Z,12.95
2022-10-23T03:46:53.056Z,11.68
2022-10-23T03:47:24.484Z,13.10
2022-10-23T03:47:56.856Z,11.23
2022-10-23T03:48:28.231Z,10.98
2022-10-23T03:48:59.629Z,12.32
2022-10-23T03:49:31.469Z,14.25
2022-10-23T03:50:02.858Z,12.50
2022-10-23T03:50:35.122Z,12.50
2022-10-23T03:51:06.660Z,11.45
2022-10-23T03:51:38.142Z,13.45
2022-10-23T03:52:09.518Z,13.27
2022-10-23T03:52:41.292Z,13.20
2022-10-23T03:53:13.095Z,14.10
2022-10-23T03:53:44.448Z,12.70
2022-10-23T03:54:15.840Z,12.45
2022-10-23T03:54:47.221Z,12.18
2022-10-23T03:55:18.611Z,12.02
2022-10-23T03:55:50.000Z,14.13
2022-10-23T03:56:21.495Z,11.20
2022-10-23T03:56:56.517Z,11.38
2022-10-23T03:57:29.016Z,12.52
2022-10-23T03:58:00.406Z,11.63
2022-10-23T03:58:31.789Z,13.35
2022-10-23T03:59:03.230Z,12.60
2022-10-23T03:59:34.678Z,12.38
2022-10-23T04:00:06.409Z,12.45
2022-10-23T04:00:37.855Z,14.03
2022-10-23T04:01:09.585Z,11.23
2022-10-23T04:01:41.152Z,11.43
2022-10-23T04:02:12.704Z,11.27
2022-10-23T04:02:44.678Z,11.32
2022-10-23T04:03:17.459Z,12.48
2022-10-23T04:03:48.981Z,12.60
2022-10-23T04:04:20.315Z,12.77
2022-10-23T04:04:51.702Z,11.02
2022-10-23T04:05:25.902Z,11.27
2022-10-23T04:05:57.275Z,10.63
2022-10-23T04:06:28.734Z,13.00
2022-10-23T04:07:00.328Z,11.00
2022-10-23T04:07:31.801Z,12.30
2022-10-23T04:08:03.298Z,11.30
2022-10-23T04:08:34.680Z,10.52
2022-10-23T04:09:06.404Z,11.93
2022-10-23T04:09:37.909Z,11.88
2022-10-23T04:10:09.609Z,11.32
2022-10-23T04:10:40.998Z,10.98
2022-10-23T04:11:12.335Z,12.05
2022-10-23T04:11:43.767Z,11.30
2022-10-23T04:12:15.133Z,11.75
2022-10-23T04:12:46.545Z,10.70
2022-10-23T04:13:17.977Z,13.63
2022-10-23T04:13:49.310Z,10.93
2022-10-23T04:14:20.718Z,12.80
2022-10-23T04:14:55.052Z,12.57
2022-10-23T04:15:26.431Z,11.55
2022-10-23T04:15:57.827Z,11.63
2022-10-23T04:16:29.204Z,9.80
2022-10-23T04:17:01.048Z,10.35
2022-10-23T04:17:32.486Z,10.95
2022-10-23T04:18:05.078Z,10.35
2022-10-23T04:18:36.450Z,11.05
2022-10-23T04:19:07.824Z,10.77
2022-10-23T04:19:39.214Z,10.52
2022-10-23T04:20:10.618Z,12.13
2022-10-23T04:20:41.987Z,15.07
2022-10-23T04:21:13.528Z,12.00
2022-10-23T04:21:44.862Z,14.10
2022-10-23T04:22:16.338Z,13.05
2022-10-23T04:22:47.746Z,13.75
2022-10-23T04:23:19.179Z,14.65
2022-10-23T04:23:50.571Z,14.07
2022-10-23T04:24:22.661Z,12.95
2022-10-23T04:24:54.056Z,11.80
2022-10-23T04:25:25.592Z,11.68
2022-10-23T04:25:57.460Z,10.65
2022-10-23T04:26:28.835Z,11.02
2022-10-23T04:27:00.291Z,10.80
2022-10-23T04:27:31.811Z,11.02
2022-10-23T04:28:03.284Z,11.38
2022-10-23T04:28:34.881Z,11.25
2022-10-23T04:29:06.267Z,10.88
2022-10-23T04:29:37.707Z,10.45
2022-10-23T04:30:09.569Z,11.82
2022-10-23T04:30:41.004Z,11.85
2022-10-23T04:31:12.400Z,12.60
2022-10-23T04:31:43.837Z,11.45
2022-10-23T04:32:15.246Z,10.27
2022-10-23T04:32:46.693Z,12.13
2022-10-23T04:33:18.447Z,11.88
2022-10-23T04:33:50.014Z,9.57
2022-10-23T04:34:21.413Z,11.10
2022-10-23T04:34:52.913Z,10.98
2022-10-23T04:35:24.277Z,12.77
2022-10-23T04:35:55.773Z,10.57
2022-10-23T04:36:27.166Z,11.25
2022-10-23T04:36:58.543Z,10.23
2022-10-23T04:37:29.940Z,9.55
2022-10-23T04:38:01.268Z,11.95
2022-10-23T04:38:32.859Z,10.13
2022-10-23T04:39:04.235Z,10.17
2022-10-23T04:39:35.665Z,10.32
2022-10-23T04:40:07.424Z,10.50
2022-10-23T04:40:38.942Z,10.65
2022-10-23T04:41:10.353Z,10.57
2022-10-23T04:41:41.849Z,10.45
2022-10-23T04:42:13.307Z,10.88
2022-10-23T04:42:45.084Z,9.75
2022-10-23T04:43:16.567Z,10.60
2022-10-23T04:43:48.094Z,10.93
2022-10-23T04:44:19.473Z,10.27
2022-10-23T04:44:51.041Z,12.88
2022-10-23T04:45:22.463Z,11.30
2022-10-23T04:45:53.962Z,10.15
2022-10-23T04:46:25.347Z,10.82
2022-10-23T04:46:56.719Z,10.32
2022-10-23T04:47:28.111Z,11.45
2022-10-23T04:47:59.493Z,10.35
2022-10-23T04:48:31.137Z,11.23
2022-10-23T04:49:02.524Z,11.70
2022-10-23T04:49:33.962Z,11.23
2022-10-23T04:50:05.599Z,10.88
2022-10-23T04:50:37.050Z,10.73
2022-10-23T04:51:09.606Z,10.30
2022-10-23T04:51:41.044Z,10.65
2022-10-23T04:52:12.422Z,10.50
2022-10-23T04:52:43.969Z,10.73
2022-10-23T04:53:15.594Z,10.93
2022-10-23T04:53:46.994Z,10.52
2022-10-23T04:54:18.376Z,9.75
2022-10-23T04:54:49.770Z,10.75
2022-10-23T04:55:21.366Z,11.68
2022-10-23T04:55:53.977Z,10.57
2022-10-23T04:56:25.360Z,9.95
2022-10-23T04:56:56.727Z,12.35
2022-10-23T04:57:28.132Z,10.90
2022-10-23T04:57:59.518Z,11.07
2022-10-23T04:58:30.912Z,10.13
2022-10-23T04:59:02.395Z,11.57
2022-10-23T04:59:33.930Z,10.55
2022-10-23T05:00:06.701Z,12.50
2022-10-23T05:00:38.120Z,13.00
2022-10-23T05:01:10.056Z,15.52
2022-10-23T05:01:41.614Z,14.73
2022-10-23T05:02:13.065Z,13.93
2022-10-23T05:02:44.977Z,13.60
2022-10-23T05:03:17.223Z,11.10
2022-10-23T05:03:48.758Z,11.25
2022-10-23T05:04:20.101Z,11.85
2022-10-23T05:04:51.534Z,12.20
2022-10-23T05:05:23.018Z,12.05
2022-10-23T05:05:55.220Z,11.27
2022-10-23T05:06:26.657Z,12.25
2022-10-23T05:06:58.048Z,12.38
2022-10-23T05:07:29.478Z,12.38
2022-10-23T05:08:01.018Z,11.60
2022-10-23T05:08:32.519Z,12.13
2022-10-23T05:09:04.002Z,14.52
2022-10-23T05:09:35.406Z,14.20
2022-10-23T05:10:07.082Z,12.80
2022-10-23T05:10:38.774Z,12.25
2022-10-23T05:11:10.169Z,12.40
2022-10-23T05:11:41.542Z,11.52
2022-10-23T05:12:13.139Z,13.00
2022-10-23T05:12:44.467Z,13.52
2022-10-23T05:13:17.066Z,12.57
2022-10-23T05:13:48.519Z,15.80
2022-10-23T05:14:22.700Z,11.25
2022-10-23T05:14:54.371Z,12.55
2022-10-23T05:15:25.908Z,13.20
2022-10-23T05:15:58.375Z,14.07
2022-10-23T05:16:29.704Z,14.98
2022-10-23T05:17:02.882Z,14.38
2022-10-23T05:17:37.751Z,12.63
2022-10-23T05:18:12.162Z,15.30
2022-10-23T05:18:47.641Z,12.68
2022-10-23T05:19:24.149Z,11.95
2022-10-23T05:19:57.634Z,13.55
2022-10-23T05:20:33.111Z,15.68
2022-10-23T05:21:11.673Z,15.52
2022-10-23T05:21:43.106Z,15.88
2022-10-23T05:22:15.157Z,13.23
2022-10-23T05:22:47.720Z,14.55
2022-10-23T05:23:20.228Z,13.88
2022-10-23T05:23:51.704Z,14.00
2022-10-23T05:24:23.523Z,14.32
2022-10-23T05:24:54.908Z,12.57
2022-10-23T05:25:26.392Z,15.43
2022-10-23T05:25:57.826Z,13.38
2022-10-23T05:26:30.910Z,14.90
2022-10-23T05:27:02.256Z,13.25
2022-10-23T05:27:33.575Z,14.88
2022-10-23T05:28:04.960Z,15.15
2022-10-23T05:28:36.347Z,15.38
2022-10-23T05:29:07.731Z,16.40
2022-10-23T05:29:39.126Z,15.43
2022-10-23T05:30:10.868Z,15.52
2022-10-23T05:30:42.609Z,14.82
2022-10-23T05:31:14.760Z,15.27
2022-10-23T05:31:46.864Z,17.10
2022-10-23T05:32:18.478Z,16.58
2022-10-23T05:32:49.993Z,17.50
2022-10-23T05:33:21.382Z,15.27
2022-10-23T05:33:54.311Z,16.33
2022-10-23T05:34:26.259Z,15.38
2022-10-23T05:34:58.209Z,15.47
2022-10-23T05:35:29.792Z,18.95
2022-10-23T05:36:01.546Z,17.67
2022-10-23T05:36:32.975Z,17.30
2022-10-23T05:37:05.644Z,16.50
2022-10-23T05:37:41.565Z,17.20
2022-10-23T05:38:13.333Z,17.63
2022-10-23T05:38:45.122Z,17.15
2022-10-23T05:39:16.715Z,17.65
2022-10-23T05:39:48.097Z,16.98
2022-10-23T05:40:19.581Z,17.73
2022-10-23T05:40:51.648Z,19.05
2022-10-23T05:41:23.027Z,17.42
2022-10-23T05:41:54.514Z,16.35
2022-10-23T05:42:25.860Z,16.75
2022-10-23T05:42:57.184Z,18.13
2022-10-23T05:43:28.571Z,18.48
2022-10-23T05:43:59.917Z,19.45
2022-10-23T05:44:31.343Z,18.25
2022-10-23T05:45:02.786Z,19.65
2022-10-23T05:45:34.219Z,17.83
2022-10-23T05:46:06.013Z,18.35
2022-10-23T05:46:41.495Z,16.02
2022-10-23T05:47:12.994Z,17.27
2022-10-23T05:47:47.550Z,19.70
2022-10-23T05:48:33.496Z,17.17
2022-10-23T05:49:05.599Z,17.67
2022-10-23T05:49:37.075Z,17.63
2022-10-23T05:50:08.604Z,17.65
2022-10-23T05:50:39.990Z,17.23
2022-10-23T05:51:11.478Z,17.35
2022-10-23T05:51:42.860Z,17.48
2022-10-23T05:52:14.303Z,18.02
2022-10-23T05:52:46.332Z,17.63
2022-10-23T05:53:17.837Z,18.13
2022-10-23T05:53:49.687Z,17.98
2022-10-23T05:54:21.127Z,17.27
2022-10-23T05:54:52.563Z,18.38
2022-10-23T05:55:25.639Z,18.60
2022-10-23T05:55:57.073Z,16.88
2022-10-23T05:56:28.482Z,18.67
2022-10-23T05:56:59.893Z,18.63
2022-10-23T05:57:34.356Z,16.30
2022-10-23T05:58:05.747Z,18.00
2022-10-23T05:58:37.171Z,18.30
2022-10-23T05:59:08.991Z,19.77
2022-10-23T05:59:40.469Z,16.65
2022-10-23T06:00:12.217Z,17.52
2022-10-23T06:00:43.545Z,19.58
2022-10-23T06:01:16.190Z,17.77
2022-10-23T06:01:47.713Z,17.27
2022-10-23T06:02:19.317Z,16.70
2022-10-23T06:02:50.839Z,19.83
2022-10-23T06:03:22.278Z,18.77
2022-10-23T06:03:53.654Z,17.58
2022-10-23T06:04:25.242Z,20.45
2022-10-23T06:04:56.682Z,20.83
2022-10-23T06:05:28.187Z,19.27
2022-10-23T06:05:59.671Z,19.20
2022-10-23T06:06:31.181Z,21.48
2022-10-23T06:07:03.041Z,21.40
2022-10-23T06:07:35.872Z,20.77
2022-10-23T06:08:07.554Z,22.63
2022-10-23T06:08:38.903Z,22.13
2022-10-23T06:09:10.283Z,20.73
2022-10-23T06:09:41.616Z,19.40
2022-10-23T06:10:13.072Z,19.33
2022-10-23T06:10:44.544Z,22.60
2022-10-23T06:11:15.877Z,22.67
2022-10-23T06:11:47.360Z,17.95
2022-10-23T06:12:19.416Z,18.00
2022-10-23T06:12:51.369Z,20.92
2022-10-23T06:13:22.804Z,17.50
2022-10-23T06:13:54.324Z,19.40
2022-10-23T06:14:25.782Z,17.42
2022-10-23T06:14:57.671Z,17.80
2022-10-23T06:15:29.064Z,17.45
2022-10-23T06:16:00.448Z,17.90
2022-10-23T06:16:31.886Z,19.02
2022-10-23T06:17:03.326Z,18.75
2022-10-23T06:17:34.709Z,19.88
2022-10-23T06:18:06.148Z,19.05
2022-10-23T06:18:37.583Z,21.58
2022-10-23T06:19:12.559Z,18.13
2022-10-23T06:19:44.506Z,17.38
2022-10-23T06:20:15.944Z,21.50
2022-10-23T06:20:47.329Z,20.02
2022-10-23T06:21:19.386Z,19.13
2022-10-23T06:21:50.820Z,19.00
2022-10-23T06:22:22.206Z,18.63
2022-10-23T06:22:53.585Z,17.05
2022-10-23T06:23:24.981Z,16.95
2022-10-23T06:23:56.673Z,17.40
2022-10-23T06:24:28.051Z,16.60
2022-10-23T06:24:59.440Z,18.48
2022-10-23T06:25:31.243Z,17.20
2022-10-23T06:26:03.033Z,17.23
2022-10-23T06:26:34.673Z,17.67
2022-10-23T06:27:06.059Z,16.33
2022-10-23T06:27:37.458Z,16.17
2022-10-23T06:28:08.841Z,17.50
2022-10-23T06:28:40.727Z,16.77
2022-10-23T06:29:12.169Z,15.48
2022-10-23T06:29:43.605Z,16.52
2022-10-23T06:30:14.991Z,15.93
2022-10-23T06:30:46.380Z,17.30
2022-10-23T06:31:18.067Z,16.10
2022-10-23T06:31:49.496Z,15.20
2022-10-23T06:32:20.844Z,16.10
2022-10-23T06:32:52.179Z,15.38
2022-10-23T06:33:23.562Z,15.45
2022-10-23T06:33:55.310Z,16.25
2022-10-23T06:34:26.745Z,16.27
2022-10-23T06:34:58.126Z,14.50
2022-10-23T06:35:29.531Z,15.05
2022-10-23T06:36:00.957Z,15.32
2022-10-23T06:36:32.633Z,16.80
2022-10-23T06:37:04.043Z,15.00
2022-10-23T06:37:35.422Z,14.70
2022-10-23T06:38:06.807Z,13.48
2022-10-23T06:38:38.445Z,12.52
2022-10-23T06:39:09.836Z,15.38
2022-10-23T06:39:41.324Z,13.07
2022-10-23T06:40:12.763Z,12.93
2022-10-23T06:40:44.148Z,13.10
2022-10-23T06:41:21.945Z,13.93
2022-10-23T06:41:53.325Z,13.48
2022-10-23T06:42:24.653Z,14.02
2022-10-23T06:42:56.453Z,12.68
2022-10-23T06:43:27.836Z,14.73
2022-10-23T06:43:59.234Z,15.15
2022-10-23T06:44:30.596Z,13.98
2022-10-23T06:45:04.916Z,14.50
2022-10-23T06:45:37.891Z,15.13
2022-10-23T06:46:09.950Z,15.52
2022-10-23T06:46:41.491Z,12.60
2022-10-23T06:47:12.904Z,13.50
2022-10-23T06:47:44.530Z,14.52
2022-10-23T06:48:16.458Z,14.68
2022-10-23T06:48:47.841Z,14.27
2022-10-23T06:49:19.227Z,16.33
2022-10-23T06:49:50.603Z,13.77
2022-10-23T06:50:22.053Z,16.27
2022-10-23T06:50:53.486Z,17.60
2022-10-23T06:51:24.879Z,17.15
2022-10-23T06:51:56.283Z,18.05
2022-10-23T06:52:45.791Z,18.17
2022-10-23T06:53:18.231Z,15.85
2022-10-23T06:53:49.823Z,18.88
2022-10-23T06:54:21.205Z,18.42
2022-10-23T06:54:52.620Z,17.70
2022-10-23T06:55:24.242Z,19.17
2022-10-23T06:56:01.928Z,18.10
2022-10-23T06:56:33.494Z,17.17
2022-10-23T06:57:04.909Z,18.80
2022-10-23T06:57:36.338Z,18.85
2022-10-23T06:58:08.037Z,17.52
2022-10-23T06:58:40.022Z,22.17
2022-10-23T06:59:11.414Z,19.85
2022-10-23T06:59:42.801Z,17.70
2022-10-23T07:00:14.341Z,17.25
2022-10-23T07:00:45.771Z,18.50
2022-10-23T07:01:18.328Z,17.08
2022-10-23T07:01:50.099Z,16.35
2022-10-23T07:02:21.576Z,15.70
2022-10-23T07:02:53.227Z,16.10
2022-10-23T07:03:24.609Z,15.48
2022-10-23T07:03:55.990Z,16.30
2022-10-23T07:04:27.371Z,18.27
2022-10-23T07:04:58.759Z,15.43
2022-10-23T07:05:30.145Z,14.68
2022-10-23T07:06:02.264Z,15.48
2022-10-23T07:06:33.692Z,15.02
2022-10-23T07:07:05.072Z,15.70
2022-10-23T07:07:36.457Z,15.38
2022-10-23T07:08:07.862Z,16.23
2022-10-23T07:08:39.229Z,15.40
2022-10-23T07:09:10.629Z,14.43